Latest Weather Observations for Campania

IDT60801

Issued at 5:41 pm EST Saturday 22 September 2018 (issued every 10 minutes, with the page automatically refreshed every 10 minutes)

About weather observations | Map of weather stations | Latest weather observations for TAS | Other Formats
Station Details ID: 094212 Name: CAMPANIA (KINCORA) Lat: -42.69 Lon: 147.43 Height: 45.0 m
Data from the previous 72 hours. | See also: Recent months at Campania
Date/Time
EST
Temp
°C
App
Temp
°C
Dew
Point
°C
Rel
Hum
%
Delta-T
°C
Wind Press
QNH
hPa
Press
MSL
hPa
Rain since
9am
mm
Dir  Spd
km/h
Gust
km/h
Spd
kts
Gust
kts
22/05:30pm 11.9 8.3 6.6 70 2.5 W 15 26 8 14 - - 0.0
22/05:00pm 11.9 8.0 7.0 72 2.4 WNW 17 24 9 13 - - 0.0
22/04:30pm 11.7 5.5 7.8 77 1.9 W 30 41 16 22 - - 0.0
22/04:10pm 13.5 6.5 8.4 71 2.6 WSW 35 54 19 29 - - 0.0
22/04:00pm 15.8 11.3 6.3 53 4.6 WNW 19 32 10 17 - - 0.0
22/03:30pm 17.0 12.0 6.5 50 5.2 WNW 22 37 12 20 - - 0.0
22/03:00pm 16.3 9.7 6.2 51 4.9 WNW 30 41 16 22 - - 0.0
22/02:30pm 17.5 10.9 6.1 47 5.6 WNW 30 54 16 29 - - 0.0
22/02:00pm 17.1 9.9 5.7 47 5.5 WNW 33 57 18 31 - - 0.0
22/01:30pm 18.0 10.4 5.6 44 6.0 NW 35 57 19 31 - - 0.0
22/01:00pm 17.7 9.3 5.6 45 5.9 NW 39 57 21 31 - - 0.0
22/12:39pm 18.0 11.3 7.4 50 5.4 NW 32 50 17 27 - - 0.0
22/12:30pm 16.8 9.6 6.0 49 5.3 NW 33 50 18 27 - - 0.0
22/12:05pm 16.9 10.8 6.7 51 5.0 NW 28 46 15 25 - - 0.0
22/12:00pm 16.4 11.0 6.5 52 4.9 NW 24 41 13 22 - - 0.0
22/11:30am 16.1 11.5 6.5 53 4.7 NNW 20 39 11 21 - - 0.0
22/11:00am 15.3 10.4 6.8 57 4.2 NW 22 35 12 19 - - 0.0
22/10:30am 14.5 9.0 6.1 57 4.0 NW 24 44 13 24 - - 0.0
22/10:00am 14.2 8.7 5.8 57 4.0 NW 24 35 13 19 - - 0.0
22/09:30am 13.8 7.5 5.7 58 3.8 NW 28 46 15 25 - - 0.0
22/09:27am 13.7 7.4 5.6 58 3.8 NW 28 46 15 25 - - 0.0
22/09:03am 13.5 5.8 5.2 57 3.9 NW 35 44 19 24 - - 0.0
22/09:00am 13.5 10.0 5.4 58 3.8 NNW 13 22 7 12 - - 0.0
22/08:30am 12.8 7.5 5.0 59 3.6 N 22 30 12 16 - - 0.0
22/08:00am 11.1 5.7 4.3 63 3.1 N 22 28 12 15 - - 0.0
22/07:30am 10.3 4.3 3.6 63 2.9 N 24 30 13 16 - - 0.0
22/07:00am 9.5 3.6 3.7 67 2.5 N 24 33 13 18 - - 0.0
22/06:30am 8.9 3.3 3.5 69 2.3 N 22 32 12 17 - - 0.0
22/06:00am 8.3 3.2 3.9 74 1.9 N 20 37 11 20 - - 0.0
22/05:30am 8.6 2.4 4.2 74 1.9 N 26 33 14 18 - - 0.0
22/05:00am 8.6 2.4 4.2 74 1.9 N 26 37 14 20 - - 0.0
22/04:30am 8.8 3.0 4.2 73 2.0 N 24 33 13 18 - - 0.0
22/04:00am 7.6 4.5 3.5 75 1.8 NW 9 15 5 8 - - 0.0
22/03:30am 6.5 3.7 3.1 79 1.4 NNW 7 11 4 6 - - 0.0
22/03:00am 8.5 4.4 4.3 75 1.8 NNE 15 20 8 11 - - 0.0
22/02:30am 8.8 5.7 3.6 70 2.3 N 9 15 5 8 - - 0.0
22/02:00am 8.4 5.3 3.7 72 2.0 N 9 13 5 7 - - 0.0
22/01:30am 9.7 6.9 3.2 64 2.8 NNW 7 11 4 6 - - 0.0
22/01:00am 9.9 6.0 3.2 63 2.9 NNW 13 17 7 9 - - 0.0
22/12:30am 11.2 6.9 3.0 57 3.6 NW 15 22 8 12 - - 0.0
22/12:00am 11.5 6.4 3.3 57 3.6 NNW 19 24 10 13 - - 0.0
 
Date/Time
EST
Temp
°C
App
Temp
°C
Dew
Point
°C
Rel
Hum
%
Delta-T
°C
Wind Press
QNH
hPa
Press
MSL
hPa
Rain since
9am
mm
Dir  Spd
km/h
Gust
km/h
Spd
kts
Gust
kts
21/11:30pm 11.8 6.7 3.3 56 3.8 NNW 19 32 10 17 - - 0.0
21/11:00pm 11.3 7.9 4.1 61 3.2 NW 11 17 6 9 - - 0.0
21/10:30pm 11.6 7.1 4.1 60 3.4 NW 17 20 9 11 - - 0.0
21/10:00pm 12.1 6.7 4.3 59 3.5 NNW 22 32 12 17 - - 0.0
21/09:30pm 13.1 6.5 4.3 55 4.0 NNW 28 39 15 21 - - 0.0
21/09:00pm 13.5 9.0 4.4 54 4.2 NNW 17 33 9 18 - - 0.0
21/08:30pm 13.5 10.1 4.1 53 4.3 N 11 19 6 10 - - 0.0
21/08:00pm 14.1 9.6 4.4 52 4.5 NW 17 26 9 14 - - 0.0
21/07:30pm 14.6 8.7 3.7 48 5.0 NW 24 39 13 21 - - 0.0
21/07:00pm 15.1 9.6 3.9 47 5.2 NW 22 32 12 17 - - 0.0
21/06:30pm 15.7 9.8 4.1 46 5.4 NW 24 35 13 19 - - 0.0
21/06:00pm 15.5 11.5 4.8 49 5.0 NW 15 20 8 11 - - 0.0
21/05:30pm 17.0 11.6 4.3 43 6.0 WNW 22 32 12 17 - - 0.0
21/05:00pm 17.8 13.0 4.4 41 6.4 NW 19 33 10 18 - - 0.0
21/04:30pm 18.4 13.5 4.9 41 6.5 WNW 20 33 11 18 - - 0.0
21/04:00pm 19.2 14.8 4.9 39 6.9 NW 17 26 9 14 - - 0.0
21/03:30pm 19.2 14.4 5.6 41 6.7 NW 20 35 11 19 - - 0.0
21/03:00pm 19.4 14.6 5.8 41 6.7 NW 20 32 11 17 - - 0.0
21/02:30pm 19.5 14.8 5.9 41 6.7 WNW 20 33 11 18 - - 0.0
21/02:00pm 19.6 14.9 7.7 46 6.1 WNW 22 41 12 22 - - 0.0
21/01:30pm 19.3 14.4 6.8 44 6.3 WNW 22 35 12 19 - - 0.0
21/01:00pm 18.3 12.6 6.8 47 5.8 WNW 26 39 14 21 - - 0.0
21/12:30pm 18.4 12.4 6.9 47 5.8 NW 28 41 15 22 - - 0.0
21/12:00pm 18.3 14.2 8.0 51 5.3 WNW 19 30 10 16 - - 0.0
21/11:30am 17.5 13.1 7.3 51 5.1 NW 20 30 11 16 - - 0.0
21/11:00am 16.6 12.2 6.7 52 4.9 WNW 19 30 10 16 - - 0.0
21/10:30am 16.0 12.4 6.7 54 4.6 NNW 15 26 8 14 - - 0.0
21/10:00am 14.8 10.2 6.4 57 4.1 NW 20 26 11 14 - - 0.0
21/09:30am 14.0 9.3 5.9 58 3.9 NW 20 32 11 17 - - 0.0
21/09:00am 14.0 8.9 6.1 59 3.8 NW 22 35 12 19 - - 0.0
21/08:30am 14.0 9.6 6.4 60 3.7 NW 19 33 10 18 - - 0.0
21/08:00am 13.4 8.6 5.6 59 3.7 NNW 20 32 11 17 - - 0.0
21/07:30am 13.3 9.6 6.4 63 3.3 NNW 15 22 8 12 - - 0.0
21/07:00am 12.0 8.7 6.3 68 2.7 N 13 19 7 10 - - 0.0
21/06:30am 9.5 6.9 5.9 78 1.7 NNW 9 13 5 7 - - 0.0
21/06:00am 9.2 6.5 5.4 77 1.7 N 9 13 5 7 - - 0.0
21/05:30am 8.0 5.2 5.3 83 1.2 N 9 11 5 6 - - 0.0
21/05:00am 7.7 4.9 5.0 83 1.2 N 9 11 5 6 - - 0.0
21/04:30am 9.3 6.3 5.9 79 1.6 N 11 15 6 8 - - 0.0
21/04:00am 6.6 4.1 4.8 88 0.8 NNW 7 11 4 6 - - 0.0
21/03:30am 7.6 4.8 5.1 84 1.1 N 9 11 5 6 - - 0.0
21/03:00am 7.6 4.9 5.4 86 1.0 N 9 13 5 7 - - 0.0
21/02:30am 9.0 5.9 5.7 80 1.5 N 11 15 6 8 - - 0.0
21/02:00am 11.2 7.8 6.1 71 2.4 N 13 15 7 8 - - 0.0
21/01:30am 10.2 7.6 6.0 75 1.9 N 9 15 5 8 - - 0.0
21/01:00am 9.3 6.6 5.5 77 1.7 N 9 13 5 7 - - 0.0
21/12:30am 9.6 6.6 5.8 77 1.7 N 11 15 6 8 - - 0.0
21/12:00am 9.3 6.1 5.3 76 1.8 N 11 13 6 7 - - 0.0
 
Date/Time
EST
Temp
°C
App
Temp
°C
Dew
Point
°C
Rel
Hum
%
Delta-T
°C
Wind Press
QNH
hPa
Press
MSL
hPa
Rain since
9am
mm
Dir  Spd
km/h
Gust
km/h
Spd
kts
Gust
kts
20/11:30pm 8.1 6.6 5.0 81 1.4 N 2 11 1 6 - - 0.0
20/11:00pm 9.7 7.3 5.1 73 2.1 NNW 7 9 4 5 - - 0.0
20/10:30pm 11.6 8.2 5.7 67 2.7 N 13 20 7 11 - - 0.0
20/10:00pm 11.3 8.6 5.6 68 2.6 NW 9 13 5 7 - - 0.0
20/09:30pm 10.4 7.3 5.6 72 2.2 N 11 13 6 7 - - 0.0
20/09:00pm 11.8 9.0 5.2 64 3.0 N 9 13 5 7 - - 0.0
20/08:30pm 11.7 9.0 5.6 66 2.8 N 9 15 5 8 - - 0.0
20/08:00pm 11.2 9.0 5.5 68 2.6 N 6 7 3 4 - - 0.0
20/07:30pm 12.4 9.3 5.6 63 3.2 NNW 11 19 6 10 - - 0.0
20/07:00pm 11.1 9.2 7.4 78 1.8 NW 7 11 4 6 - - 0.0
20/06:30pm 12.6 10.3 5.8 63 3.2 WNW 7 11 4 6 - - 0.0
20/06:00pm 12.9 10.6 5.8 62 3.3 WNW 7 9 4 5 - - 0.0
20/05:30pm 13.0 9.3 6.1 63 3.3 WSW 15 20 8 11 - - 0.0
20/05:00pm 13.8 9.4 4.9 55 4.1 W 17 26 9 14 - - 0.0
20/04:30pm 14.1 9.2 4.9 54 4.3 W 20 30 11 16 - - 0.0
20/04:00pm 14.2 8.9 5.0 54 4.3 WNW 22 35 12 19 - - 0.0
20/03:30pm 14.4 10.4 5.0 53 4.4 WNW 15 20 8 11 - - 0.0
20/03:00pm 14.6 9.8 5.4 54 4.4 WNW 20 30 11 16 - - 0.0
20/02:30pm 14.8 10.6 5.6 54 4.4 WNW 17 26 9 14 - - 0.0
20/02:00pm 14.4 9.5 5.2 54 4.3 NW 20 30 11 16 - - 0.0
20/01:30pm 14.5 9.8 5.3 54 4.3 NW 19 30 10 16 - - 0.0
20/01:00pm 14.5 9.7 4.8 52 4.5 WNW 19 28 10 15 - - 0.0
20/12:30pm 14.5 10.9 5.0 53 4.5 NW 13 19 7 10 - - 0.0
20/12:00pm 13.7 9.5 3.8 51 4.5 NNW 15 20 8 11 - - 0.0
20/11:30am 14.0 9.6 4.6 53 4.4 WNW 17 24 9 13 - - 0.0
20/11:00am 13.2 8.2 3.8 53 4.3 WNW 19 30 10 16 - - 0.0
20/10:30am 12.2 7.0 3.4 55 3.9 NW 20 39 11 21 - - 0.0
20/10:00am 12.6 5.6 4.1 56 3.8 W 30 48 16 26 - - 0.0
20/09:30am 12.1 7.2 3.9 57 3.7 NW 19 28 10 15 - - 0.0
20/09:00am 10.4 6.5 3.2 61 3.1 NW 13 20 7 11 - - 3.6
20/08:30am 10.2 5.9 3.3 62 3.0 NNW 15 28 8 15 - - 3.6
20/08:00am 9.8 5.5 3.3 64 2.8 NNW 15 22 8 12 - - 3.6
20/07:30am 8.7 5.1 3.1 68 2.4 N 11 20 6 11 - - 3.6
20/07:00am 5.9 2.6 2.2 77 1.5 N 9 13 5 7 - - 3.6
20/06:30am 3.0 -0.2 0.9 86 0.8 N 7 13 4 7 - - 3.6
20/06:00am 3.2 -0.7 0.9 85 0.9 N 11 19 6 10 - - 3.6
20/05:30am 2.3 -1.4 -0.1 84 0.9 N 9 11 5 6 - - 3.6
20/05:00am 1.9 -2.2 -0.2 86 0.8 N 11 15 6 8 - - 3.6
20/04:30am 2.0 -1.2 -0.2 85 0.8 N 6 7 3 4 - - 3.6
20/04:00am 1.7 -2.0 -0.1 88 0.7 N 9 15 5 8 - - 3.6
20/03:30am 1.0 -2.8 -0.9 87 0.7 N 9 13 5 7 - - 3.6
20/03:00am 0.4 -3.4 -0.7 92 0.4 N 9 11 5 6 - - 3.6
20/02:30am 0.2 -3.1 -1.4 89 0.6 N 6 7 3 4 - - 3.6
20/02:00am 1.5 -2.6 -0.1 89 0.6 N 11 13 6 7 - - 3.6
20/01:30am 0.9 -2.4 -1.2 86 0.7 N 6 7 3 4 - - 3.6
20/01:00am 1.6 -2.1 -0.3 87 0.7 N 9 15 5 8 - - 3.6
20/12:30am 2.2 -1.9 0.1 86 0.8 NNE 11 15 6 8 - - 3.6
20/12:00am 1.6 -2.1 -0.3 87 0.7 N 9 11 5 6 - - 3.6
 
Date/Time
EST
Temp
°C
App
Temp
°C
Dew
Point
°C
Rel
Hum
%
Delta-T
°C
Wind Press
QNH
hPa
Press
MSL
hPa
Rain since
9am
mm
Dir  Spd
km/h
Gust
km/h
Spd
kts
Gust
kts
19/11:30pm 2.0 -1.3 -0.2 85 0.8 NNE 7 9 4 5 - - 3.6
19/11:00pm 2.3 -1.0 0.0 85 0.8 NNE 7 9 4 5 - - 3.6
19/10:30pm 3.3 0.0 0.0 79 1.2 NNW 7 9 4 5 - - 3.6
19/10:00pm 6.0 2.3 -0.1 65 2.3 NNW 9 17 5 9 - - 3.6
19/09:30pm 7.4 2.2 -0.1 59 2.9 W 17 22 9 12 - - 3.6
19/09:00pm 7.4 2.5 -0.3 58 3.0 W 15 26 8 14 - - 3.6
19/08:30pm 7.4 2.6 0.4 61 2.8 W 15 20 8 11 - - 3.6
19/08:00pm 7.9 2.7 0.4 59 3.0 WNW 17 26 9 14 - - 3.6
19/07:30pm 7.8 2.7 0.8 61 2.8 W 17 22 9 12 - - 3.6
19/07:00pm 5.4 2.7 3.7 89 0.7 WNW 7 11 4 6 - - 3.6
19/06:30pm 5.8 3.2 4.0 88 0.8 N 7 9 4 5 - - 3.6
19/06:00pm 7.4 5.8 4.7 83 1.2 WNW 2 9 1 5 - - 3.6

Other Formats:

Comma delimited format used in spreadsheet applications
http://www.bom.gov.au/fwo/IDT60801/IDT60801.95972.axf

JavaScript Object Notation format (JSON) in row-major order
http://www.bom.gov.au/fwo/IDT60801/IDT60801.95972.json